Time;durP1;ratioP1;P1;durP2;ratioP2;P2;SDS_P1;SDS_P2;PMS_P1;PMS_P2;Temp;Humidity;BMP_temperature;BMP_pressure;BME280_temperature;BME280_humidity;BME280_pressure;Samples;Min_cycle;Max_cycle;Signal;HPM_P1;HPM_P2
2021/08/03 00:00:58;;;;;;;1.95;1.23;;;;;;;;;;6301816;22;20317;-41
2021/08/03 00:03:31;;;;;;;2.78;1.40;;;;;;;;;;6302235;22;20007;-40
2021/08/03 00:05:58;;;;;;;3.13;0.90;;;;;;;;;;6304184;22;20060;-42
2021/08/03 00:08:23;;;;;;;2.90;1.50;;;;;;;;;;6304085;22;20083;-40
2021/08/03 00:10:50;;;;;;;1.77;1.42;;;;;;;;;;6304298;22;20033;-40
2021/08/03 00:13:15;;;;;;;3.58;1.45;;;;;;;;;;6303415;22;20437;-42
2021/08/03 00:15:41;;;;;;;3.20;1.25;;;;;;;;;;6303972;22;20030;-43
2021/08/03 00:18:06;;;;;;;2.85;1.23;;;;;;;;;;6303600;22;20446;-43
2021/08/03 00:20:34;;;;;;;3.42;1.45;;;;;;;;;;6303399;22;20018;-41
2021/08/03 00:23:00;;;;;;;7.80;1.88;;;;;;;;;;6303743;22;20460;-44
2021/08/03 00:25:26;;;;;;;3.90;1.73;;;;;;;;;;6304071;22;19999;-42
2021/08/03 00:27:52;;;;;;;1.77;0.90;;;;;;;;;;6303620;22;20349;-43
2021/08/03 00:30:17;;;;;;;4.15;1.55;;;;;;;;;;6303589;22;20003;-42
2021/08/03 00:32:43;;;;;;;1.85;1.30;;;;;;;;;;6303601;22;20004;-40
2021/08/03 00:35:08;;;;;;;2.80;1.83;;;;;;;;;;6303909;22;19995;-40
2021/08/03 00:37:34;;;;;;;1.30;0.70;;;;;;;;;;6303788;22;20485;-42
2021/08/03 00:39:59;;;;;;;2.67;1.67;;;;;;;;;;6303388;22;19996;-45
2021/08/03 00:42:25;;;;;;;3.08;1.70;;;;;;;;;;6303128;22;20333;-41
2021/08/03 00:44:51;;;;;;;3.28;1.67;;;;;;;;;;6303729;22;19996;-42
2021/08/03 00:47:20;;;;;;;2.80;1.48;;;;;;;;;;6303307;22;20060;-40
2021/08/03 00:49:45;;;;;;;2.15;1.52;;;;;;;;;;6302995;22;20541;-40
2021/08/03 00:52:12;;;;;;;2.33;1.45;;;;;;;;;;6302826;22;20023;-41
2021/08/03 00:54:38;;;;;;;2.70;1.15;;;;;;;;;;6303085;22;20079;-39
2021/08/03 00:57:04;;;;;;;7.40;1.20;;;;;;;;;;6303268;22;20031;-40
2021/08/03 00:59:29;;;;;;;4.97;1.88;;;;;;;;;;6303724;22;20022;-41
2021/08/03 01:01:56;;;;;;;3.33;1.25;;;;;;;;;;6303553;22;20026;-40
2021/08/03 01:04:21;;;;;;;2.92;1.40;;;;;;;;;;6303386;22;20007;-41
2021/08/03 01:06:56;;;;;;;3.75;1.95;;;;;;;;;;6303494;22;19995;-40
2021/08/03 01:09:30;;;;;;;3.63;1.52;;;;;;;;;;6302919;22;20424;-40
2021/08/03 01:12:09;;;;;;;3.50;1.48;;;;;;;;;;6303138;22;19995;-44
2021/08/03 01:14:54;;;;;;;2.08;1.30;;;;;;;;;;6303482;22;20022;-39
2021/08/03 01:17:22;;;;;;;12.10;1.35;;;;;;;;;;6303130;22;20417;-39
2021/08/03 01:19:51;;;;;;;2.00;1.33;;;;;;;;;;6302598;22;20050;-40
2021/08/03 01:22:51;;;;;;;4.22;1.25;;;;;;;;;;6302784;22;20003;-43
2021/08/03 01:25:41;;;;;;;6.55;1.75;;;;;;;;;;6207787;23;20004;-44
2021/08/03 01:28:23;;;;;;;2.83;1.83;;;;;;;;;;6296876;22;20052;-42
2021/08/03 01:30:51;;;;;;;22.90;4.68;;;;;;;;;;6302476;22;20003;-39
2021/08/03 01:33:19;;;;;;;29.63;2.63;;;;;;;;;;6302903;22;19991;-39
2021/08/03 01:35:45;;;;;;;21.50;2.53;;;;;;;;;;6302562;22;20002;-39
2021/08/03 01:38:11;;;;;;;5.38;2.33;;;;;;;;;;6302925;22;20554;-39
2021/08/03 01:40:41;;;;;;;61.65;9.43;;;;;;;;;;6302874;22;20061;-41
2021/08/03 01:43:07;;;;;;;1.73;1.13;;;;;;;;;;6302497;22;19999;-41
2021/08/03 01:45:32;;;;;;;2.63;1.20;;;;;;;;;;6302622;22;19995;-42
2021/08/03 01:47:59;;;;;;;7.72;2.35;;;;;;;;;;6302590;22;20007;-40
2021/08/03 01:50:28;;;;;;;3.22;1.73;;;;;;;;;;6302557;22;19995;-39
2021/08/03 01:52:55;;;;;;;2.45;1.30;;;;;;;;;;6302989;22;20034;-39
2021/08/03 01:55:20;;;;;;;33.58;9.40;;;;;;;;;;6303151;22;19992;-40
2021/08/03 01:57:46;;;;;;;4.15;2.22;;;;;;;;;;6302483;22;20389;-40
2021/08/03 02:00:11;;;;;;;2.50;1.52;;;;;;;;;;6302389;22;20041;-41
2021/08/03 02:02:37;;;;;;;34.72;2.55;;;;;;;;;;6302714;22;19995;-40
2021/08/03 02:05:02;;;;;;;19.65;6.10;;;;;;;;;;6302769;22;20493;-38
2021/08/03 02:07:28;;;;;;;7.55;2.85;;;;;;;;;;6302869;22;20466;-40
2021/08/03 02:09:54;;;;;;;154.93;22.92;;;;;;;;;;6302879;22;19999;-40
2021/08/03 02:12:19;;;;;;;140.98;18.80;;;;;;;;;;6302388;22;19999;-39
2021/08/03 02:14:47;;;;;;;2.70;1.45;;;;;;;;;;6302729;22;19994;-38
2021/08/03 02:17:21;;;;;;;2.92;1.35;;;;;;;;;;6302806;22;19999;-39
2021/08/03 02:19:46;;;;;;;2.75;1.92;;;;;;;;;;6302069;22;20011;-39
2021/08/03 02:22:12;;;;;;;2.00;1.42;;;;;;;;;;6302202;22;20006;-39
2021/08/03 02:24:38;;;;;;;2.72;1.60;;;;;;;;;;6302869;22;20053;-39
2021/08/03 02:27:03;;;;;;;2.08;1.23;;;;;;;;;;6301737;22;20003;-39
2021/08/03 02:29:29;;;;;;;6.60;1.67;;;;;;;;;;6302752;22;19991;-40
2021/08/03 02:31:57;;;;;;;10.32;1.70;;;;;;;;;;6302338;22;19991;-39
2021/08/03 02:34:22;;;;;;;1.80;1.50;;;;;;;;;;6302603;22;20022;-39
2021/08/03 02:36:49;;;;;;;2.50;1.17;;;;;;;;;;6302262;22;19995;-39
2021/08/03 02:39:16;;;;;;;3.78;1.77;;;;;;;;;;6302329;22;20007;-40
2021/08/03 02:41:42;;;;;;;2.80;1.65;;;;;;;;;;6302224;22;19991;-41
2021/08/03 02:44:08;;;;;;;4.35;1.83;;;;;;;;;;6302122;22;20074;-39
2021/08/03 02:46:33;;;;;;;2.03;1.08;;;;;;;;;;6302675;22;20002;-39
2021/08/03 02:49:04;;;;;;;3.63;1.35;;;;;;;;;;6302152;22;20391;-39
2021/08/03 02:51:30;;;;;;;;;;;;;;;;;;6302466;22;20566;-40
2021/08/03 02:53:55;;;;;;;11.13;1.50;;;;;;;;;;6302700;22;19960;-39
2021/08/03 02:56:22;;;;;;;3.55;1.48;;;;;;;;;;6302201;22;20492;-40
2021/08/03 02:58:49;;;;;;;2.55;1.20;;;;;;;;;;6302593;22;20344;-43
2021/08/03 03:01:15;;;;;;;2.45;0.95;;;;;;;;;;6301785;22;20390;-41
2021/08/03 03:03:44;;;;;;;2.97;1.48;;;;;;;;;;6301742;22;20015;-41
2021/08/03 03:06:10;;;;;;;8.20;1.52;;;;;;;;;;6301961;22;20002;-41
2021/08/03 03:08:35;;;;;;;4.45;1.63;;;;;;;;;;6302007;22;20445;-43
2021/08/03 03:11:02;;;;;;;1.50;1.20;;;;;;;;;;6302382;22;19998;-41
2021/08/03 03:13:34;;;;;;;4.38;1.45;;;;;;;;;;6301824;22;19991;-41
2021/08/03 03:16:01;;;;;;;2.42;1.17;;;;;;;;;;6301641;22;19995;-38
2021/08/03 03:18:26;;;;;;;7.47;1.80;;;;;;;;;;6302216;22;20157;-37
2021/08/03 03:20:52;;;;;;;3.55;1.33;;;;;;;;;;6301084;22;20046;-39
2021/08/03 03:23:20;;;;;;;1.85;1.02;;;;;;;;;;6300611;22;20151;-39
2021/08/03 03:25:49;;;;;;;2.38;1.50;;;;;;;;;;6300660;22;19999;-40
2021/08/03 03:28:17;;;;;;;2.97;1.67;;;;;;;;;;6300417;22;20102;-40
2021/08/03 03:30:43;;;;;;;1.50;1.00;;;;;;;;;;6300585;22;20019;-42
2021/08/03 03:33:09;;;;;;;2.15;0.85;;;;;;;;;;6300598;22;19991;-40
2021/08/03 03:35:35;;;;;;;1.65;1.42;;;;;;;;;;6300595;22;20008;-40
2021/08/03 03:38:01;;;;;;;4.25;2.03;;;;;;;;;;6299444;22;20542;-40
2021/08/03 03:40:26;;;;;;;2.58;1.58;;;;;;;;;;6300417;22;20071;-43
2021/08/03 03:42:54;;;;;;;1.40;0.90;;;;;;;;;;6300536;22;20048;-44
2021/08/03 03:45:19;;;;;;;1.52;1.00;;;;;;;;;;6301014;22;20003;-40
2021/08/03 03:47:56;;;;;;;2.35;1.67;;;;;;;;;;6300295;22;20074;-42
2021/08/03 03:50:26;;;;;;;2.65;1.55;;;;;;;;;;6300487;22;20018;-40
2021/08/03 03:53:00;;;;;;;2.38;1.27;;;;;;;;;;6300070;22;20003;-41
2021/08/03 03:55:27;;;;;;;5.22;1.23;;;;;;;;;;6300980;22;19995;-39
2021/08/03 03:57:53;;;;;;;2.65;1.23;;;;;;;;;;6300585;22;20030;-39
2021/08/03 04:00:19;;;;;;;1.98;0.98;;;;;;;;;;6300453;22;20072;-41
2021/08/03 04:02:44;;;;;;;2.10;1.38;;;;;;;;;;6300163;22;19999;-42
2021/08/03 04:05:14;;;;;;;6.47;1.17;;;;;;;;;;6299717;22;20087;-43
2021/08/03 04:07:39;;;;;;;7.40;1.73;;;;;;;;;;6300352;22;20030;-41
2021/08/03 04:10:06;;;;;;;2.95;2.10;;;;;;;;;;6300264;22;20002;-41
2021/08/03 04:12:31;;;;;;;1.90;1.55;;;;;;;;;;6300268;22;19995;-40
2021/08/03 04:14:57;;;;;;;3.97;2.03;;;;;;;;;;6300088;22;20033;-40
2021/08/03 04:17:22;;;;;;;2.17;1.40;;;;;;;;;;6300498;22;20473;-40
2021/08/03 04:19:48;;;;;;;4.20;1.60;;;;;;;;;;6247558;22;1223171;-40
2021/08/03 04:22:13;;;;;;;1.95;0.90;;;;;;;;;;6301822;22;20218;-44
2021/08/03 04:24:38;;;;;;;3.45;1.50;;;;;;;;;;6302102;22;20044;-41
2021/08/03 04:27:04;;;;;;;3.72;1.80;;;;;;;;;;6301690;22;20103;-45
2021/08/03 04:29:29;;;;;;;1.95;0.95;;;;;;;;;;6301929;22;20106;-42
2021/08/03 04:31:54;;;;;;;3.03;1.52;;;;;;;;;;6302073;22;19992;-40
2021/08/03 04:34:19;;;;;;;4.85;1.75;;;;;;;;;;6301636;22;20420;-42
2021/08/03 04:36:45;;;;;;;2.25;1.77;;;;;;;;;;6301589;22;20027;-41
2021/08/03 04:39:10;;;;;;;3.55;1.45;;;;;;;;;;6301938;22;19995;-41
2021/08/03 04:41:36;;;;;;;4.07;1.52;;;;;;;;;;6302200;22;20305;-41
2021/08/03 04:44:01;;;;;;;1.65;1.40;;;;;;;;;;6301316;22;20329;-39
2021/08/03 04:46:27;;;;;;;3.25;1.20;;;;;;;;;;6301514;22;20006;-39
2021/08/03 04:48:52;;;;;;;4.05;2.50;;;;;;;;;;6301843;22;20000;-39
2021/08/03 04:51:17;;;;;;;2.53;1.50;;;;;;;;;;6303307;22;20492;-40
2021/08/03 04:53:42;;;;;;;2.40;1.65;;;;;;;;;;6303695;22;20000;-42
2021/08/03 04:56:08;;;;;;;2.88;1.92;;;;;;;;;;6303654;22;20027;-38
2021/08/03 04:58:33;;;;;;;2.55;1.55;;;;;;;;;;6303282;22;20003;-41
2021/08/03 05:00:58;;;;;;;1.17;0.95;;;;;;;;;;6303227;22;19999;-40
2021/08/03 05:03:24;;;;;;;4.22;2.00;;;;;;;;;;6303428;22;20332;-39
2021/08/03 05:05:49;;;;;;;4.97;1.98;;;;;;;;;;6303191;22;19999;-40
2021/08/03 05:08:14;;;;;;;2.72;2.08;;;;;;;;;;6303137;22;19999;-39
2021/08/03 05:10:40;;;;;;;2.50;1.70;;;;;;;;;;6303201;22;20049;-39
2021/08/03 05:13:05;;;;;;;2.92;1.50;;;;;;;;;;6302670;22;19991;-38
2021/08/03 05:15:30;;;;;;;5.97;1.92;;;;;;;;;;6302950;22;20033;-39
2021/08/03 05:17:56;;;;;;;3.50;2.38;;;;;;;;;;6302717;22;19999;-39
2021/08/03 05:20:22;;;;;;;2.80;1.42;;;;;;;;;;6302960;22;20012;-39
2021/08/03 05:22:47;;;;;;;2.53;1.90;;;;;;;;;;6303296;22;20002;-39
2021/08/03 05:25:12;;;;;;;2.65;1.83;;;;;;;;;;6303354;22;20470;-38
2021/08/03 05:27:38;;;;;;;3.10;1.60;;;;;;;;;;6301455;22;20341;-40
2021/08/03 05:30:04;;;;;;;4.30;1.65;;;;;;;;;;6303406;22;20003;-38
2021/08/03 05:32:29;;;;;;;3.00;1.63;;;;;;;;;;6302781;22;19988;-38
2021/08/03 05:34:55;;;;;;;5.63;2.55;;;;;;;;;;6302303;22;20044;-39
2021/08/03 05:37:20;;;;;;;16.63;3.08;;;;;;;;;;6302159;22;20078;-38
2021/08/03 05:39:45;;;;;;;5.75;2.40;;;;;;;;;;6302400;22;20026;-38
2021/08/03 05:42:11;;;;;;;6.47;2.60;;;;;;;;;;6301006;22;20007;-40
2021/08/03 05:44:36;;;;;;;4.30;3.20;;;;;;;;;;6303169;22;20010;-40
2021/08/03 05:47:02;;;;;;;12.65;4.07;;;;;;;;;;6302907;22;20006;-37
2021/08/03 05:49:27;;;;;;;8.50;4.78;;;;;;;;;;6303044;22;20428;-38
2021/08/03 05:51:53;;;;;;;8.13;5.57;;;;;;;;;;6302464;22;20449;-38
2021/08/03 05:54:18;;;;;;;14.10;5.03;;;;;;;;;;6302792;22;20483;-47
2021/08/03 05:56:44;;;;;;;6.15;4.70;;;;;;;;;;6302888;22;19999;-42
2021/08/03 05:59:09;;;;;;;9.50;4.50;;;;;;;;;;6303233;22;20007;-44
2021/08/03 06:01:34;;;;;;;6.38;4.50;;;;;;;;;;6302453;22;20302;-45
2021/08/03 06:04:00;;;;;;;5.90;4.03;;;;;;;;;;6302979;22;20267;-46
2021/08/03 06:06:29;;;;;;;14.98;4.18;;;;;;;;;;6302571;22;20361;-48
2021/08/03 06:08:56;;;;;;;4.85;3.75;;;;;;;;;;6302831;22;20091;-47
2021/08/03 06:11:24;;;;;;;6.57;4.80;;;;;;;;;;6302429;22;20328;-42
2021/08/03 06:13:53;;;;;;;9.25;4.32;;;;;;;;;;6302825;22;20014;-47
2021/08/03 06:16:19;;;;;;;6.03;4.10;;;;;;;;;;6301846;22;20541;-51
2021/08/03 06:18:46;;;;;;;5.85;4.05;;;;;;;;;;6302364;22;20003;-49
2021/08/03 06:21:12;;;;;;;40.03;25.17;;;;;;;;;;6302004;22;20018;-48
2021/08/03 06:23:37;;;;;;;4.85;3.95;;;;;;;;;;6302219;22;20081;-45
2021/08/03 06:26:03;;;;;;;8.43;4.40;;;;;;;;;;6301459;22;20030;-46
2021/08/03 06:28:28;;;;;;;6.53;3.75;;;;;;;;;;6299952;22;20003;-45
2021/08/03 06:30:53;;;;;;;8.77;3.92;;;;;;;;;;6300666;22;20000;-43
2021/08/03 06:33:20;;;;;;;4.60;3.45;;;;;;;;;;6301303;22;19995;-44
2021/08/03 06:35:46;;;;;;;11.68;3.75;;;;;;;;;;6301552;22;19999;-45
2021/08/03 06:38:12;;;;;;;5.63;4.20;;;;;;;;;;6302399;22;20014;-43
2021/08/03 06:40:39;;;;;;;12.85;5.00;;;;;;;;;;6302251;22;20421;-45
2021/08/03 06:43:11;;;;;;;5.85;3.45;;;;;;;;;;6302813;22;20007;-45
2021/08/03 06:45:37;;;;;;;9.57;3.30;;;;;;;;;;6302483;22;19999;-45
2021/08/03 06:48:02;;;;;;;7.60;3.97;;;;;;;;;;6301817;22;20021;-45
2021/08/03 06:50:33;;;;;;;3.47;2.72;;;;;;;;;;6302235;22;19996;-48
2021/08/03 06:52:59;;;;;;;5.38;4.85;;;;;;;;;;6302203;22;19999;-45
2021/08/03 06:55:28;;;;;;;3.58;2.67;;;;;;;;;;6301793;22;20026;-56
2021/08/03 06:57:54;;;;;;;4.80;2.15;;;;;;;;;;6301916;22;20070;-42
2021/08/03 07:00:21;;;;;;;5.80;3.55;;;;;;;;;;6302404;22;20014;-41
2021/08/03 07:02:48;;;;;;;6.50;2.28;;;;;;;;;;6302199;22;19999;-41
2021/08/03 07:05:25;;;;;;;4.82;3.05;;;;;;;;;;6302087;22;20029;-45
2021/08/03 07:07:55;;;;;;;4.82;3.08;;;;;;;;;;6302081;22;20328;-43
2021/08/03 07:10:20;;;;;;;4.97;3.00;;;;;;;;;;6302234;22;20009;-44
2021/08/03 07:12:45;;;;;;;2.90;2.25;;;;;;;;;;6301710;22;19991;-42
2021/08/03 07:15:12;;;;;;;8.13;2.83;;;;;;;;;;6301901;22;20003;-43
2021/08/03 07:17:37;;;;;;;7.43;4.43;;;;;;;;;;6301954;22;20440;-44
2021/08/03 07:20:04;;;;;;;9.73;3.63;;;;;;;;;;6301513;22;20072;-45
2021/08/03 07:22:31;;;;;;;8.63;3.47;;;;;;;;;;6301394;22;20447;-43
2021/08/03 07:24:56;;;;;;;6.43;2.80;;;;;;;;;;6301856;22;20002;-39
2021/08/03 07:27:22;;;;;;;12.32;4.30;;;;;;;;;;6301673;22;20011;-41
2021/08/03 07:29:47;;;;;;;5.30;3.55;;;;;;;;;;6301648;22;20003;-41
2021/08/03 07:32:13;;;;;;;8.73;4.65;;;;;;;;;;6301690;22;19991;-43
2021/08/03 07:34:39;;;;;;;14.75;4.75;;;;;;;;;;6301630;22;20010;-41
2021/08/03 07:37:05;;;;;;;5.45;3.63;;;;;;;;;;6301942;22;20007;-43
2021/08/03 07:39:31;;;;;;;4.93;3.33;;;;;;;;;;6301587;22;20074;-41
2021/08/03 07:41:58;;;;;;;4.82;3.72;;;;;;;;;;6301811;22;20014;-43
2021/08/03 07:44:23;;;;;;;6.57;3.92;;;;;;;;;;6301989;22;20002;-47
2021/08/03 07:46:49;;;;;;;7.40;2.88;;;;;;;;;;6301568;22;19987;-44
2021/08/03 07:49:14;;;;;;;5.40;3.60;;;;;;;;;;6301581;22;20013;-43
2021/08/03 07:51:39;;;;;;;5.55;2.33;;;;;;;;;;6301750;22;20052;-43
2021/08/03 07:54:05;;;;;;;19.52;4.10;;;;;;;;;;6301425;22;20150;-41
2021/08/03 07:56:30;;;;;;;2.42;1.60;;;;;;;;;;6301813;22;20365;-41
2021/08/03 07:58:55;;;;;;;4.38;1.95;;;;;;;;;;6301949;22;20000;-42
2021/08/03 08:01:21;;;;;;;2.08;1.33;;;;;;;;;;6301834;22;20724;-41
2021/08/03 08:03:46;;;;;;;29.08;5.95;;;;;;;;;;6301658;22;20550;-42
2021/08/03 08:06:12;;;;;;;4.22;1.58;;;;;;;;;;6301594;22;19999;-43
2021/08/03 08:08:37;;;;;;;4.15;1.83;;;;;;;;;;6301611;22;20053;-40
2021/08/03 08:11:03;;;;;;;5.60;2.92;;;;;;;;;;6301834;22;19991;-42
2021/08/03 08:13:28;;;;;;;4.47;3.45;;;;;;;;;;6301650;22;19995;-42
2021/08/03 08:15:53;;;;;;;3.83;2.42;;;;;;;;;;6301472;22;20039;-45
2021/08/03 08:18:19;;;;;;;12.60;2.70;;;;;;;;;;6301361;22;20015;-42
2021/08/03 08:20:45;;;;;;;5.10;3.83;;;;;;;;;;6301552;22;20034;-46
2021/08/03 08:23:12;;;;;;;6.93;5.70;;;;;;;;;;6301871;22;20095;-50
2021/08/03 08:25:37;;;;;;;7.25;6.28;;;;;;;;;;6302838;22;20034;-50
2021/08/03 08:28:03;;;;;;;3.35;2.83;;;;;;;;;;6303377;22;20006;-53
2021/08/03 08:30:28;;;;;;;5.15;2.97;;;;;;;;;;6303759;22;19999;-50
2021/08/03 08:32:54;;;;;;;4.75;1.85;;;;;;;;;;6303156;22;20336;-51
2021/08/03 08:35:20;;;;;;;8.35;2.28;;;;;;;;;;6303749;22;19996;-50
2021/08/03 08:37:45;;;;;;;3.00;1.63;;;;;;;;;;6303299;22;20420;-48
2021/08/03 08:40:11;;;;;;;3.95;1.63;;;;;;;;;;6303801;22;19999;-50
2021/08/03 08:42:37;;;;;;;2.15;1.80;;;;;;;;;;6303762;22;20102;-50
2021/08/03 08:45:04;;;;;;;2.58;1.35;;;;;;;;;;6303248;22;20112;-44
2021/08/03 08:47:29;;;;;;;2.30;0.88;;;;;;;;;;6303277;22;19999;-58
2021/08/03 08:50:02;;;;;;;3.55;1.90;;;;;;;;;;6303415;22;20006;-62
2021/08/03 08:52:27;;;;;;;1.73;1.23;;;;;;;;;;6303614;22;20019;-51
2021/08/03 08:54:52;;;;;;;5.55;2.83;;;;;;;;;;6303385;22;20011;-53
2021/08/03 08:57:18;;;;;;;4.22;2.70;;;;;;;;;;6303199;22;20148;-42
2021/08/03 08:59:43;;;;;;;4.65;2.10;;;;;;;;;;6303441;22;20131;-45
2021/08/03 09:02:10;;;;;;;2.45;1.33;;;;;;;;;;6302622;22;20049;-46
2021/08/03 09:04:39;;;;;;;6.20;2.08;;;;;;;;;;6303469;22;20007;-45
2021/08/03 09:07:08;;;;;;;3.53;1.65;;;;;;;;;;6303012;22;20037;-48
2021/08/03 09:09:40;;;;;;;1.98;1.10;;;;;;;;;;6302527;22;20457;-45
2021/08/03 09:12:06;;;;;;;2.95;2.03;;;;;;;;;;6303142;22;20120;-47
2021/08/03 09:14:38;;;;;;;3.40;1.80;;;;;;;;;;6302890;22;20048;-45
2021/08/03 09:17:03;;;;;;;4.80;1.70;;;;;;;;;;6302867;22;20048;-45
2021/08/03 09:19:30;;;;;;;3.90;2.35;;;;;;;;;;6302758;22;20090;-45
2021/08/03 09:22:13;;;;;;;4.15;1.52;;;;;;;;;;6302880;22;20002;-47
2021/08/03 09:24:39;;;;;;;5.25;1.52;;;;;;;;;;6303114;22;19991;-46
2021/08/03 09:27:04;;;;;;;3.08;2.35;;;;;;;;;;6303242;22;20003;-46
2021/08/03 09:29:41;;;;;;;1.95;1.15;;;;;;;;;;6303181;22;19995;-49
2021/08/03 09:32:07;;;;;;;3.95;1.70;;;;;;;;;;6302840;22;20003;-49
2021/08/03 09:34:32;;;;;;;5.10;3.20;;;;;;;;;;6302884;22;19995;-50
2021/08/03 09:36:59;;;;;;;3.70;2.08;;;;;;;;;;6303006;22;20453;-50
2021/08/03 09:39:37;;;;;;;11.18;3.20;;;;;;;;;;6302794;22;20056;-53
2021/08/03 09:42:06;;;;;;;37.10;5.97;;;;;;;;;;6302749;22;19999;-53
2021/08/03 09:44:31;;;;;;;12.55;2.92;;;;;;;;;;6302848;22;19998;-53
2021/08/03 09:46:57;;;;;;;4.05;2.20;;;;;;;;;;6302477;22;20454;-49
2021/08/03 09:49:34;;;;;;;6.82;2.67;;;;;;;;;;6302820;22;20203;-54
2021/08/03 09:52:09;;;;;;;3.78;2.17;;;;;;;;;;6302733;22;20029;-54
2021/08/03 09:54:35;;;;;;;4.43;1.60;;;;;;;;;;6302733;22;20004;-54
2021/08/03 09:57:01;;;;;;;8.52;1.85;;;;;;;;;;6302786;22;20032;-49
2021/08/03 09:59:36;;;;;;;18.70;2.25;;;;;;;;;;6302017;22;20321;-49
2021/08/03 10:02:02;;;;;;;6.95;2.28;;;;;;;;;;6301941;22;20049;-50
2021/08/03 10:04:27;;;;;;;2.63;1.55;;;;;;;;;;6302154;22;20787;-48
2021/08/03 10:06:53;;;;;;;7.50;2.17;;;;;;;;;;6301966;22;19995;-53
2021/08/03 10:09:21;;;;;;;10.82;2.15;;;;;;;;;;6301703;22;20007;-45
2021/08/03 10:11:47;;;;;;;11.05;1.48;;;;;;;;;;6301777;22;20071;-48
2021/08/03 10:14:12;;;;;;;2.45;1.55;;;;;;;;;;6301408;22;20002;-50
2021/08/03 10:16:37;;;;;;;6.05;1.98;;;;;;;;;;6301639;22;19995;-47
2021/08/03 10:19:04;;;;;;;7.45;1.52;;;;;;;;;;6301445;22;19999;-46
2021/08/03 10:21:42;;;;;;;4.75;0.90;;;;;;;;;;6302015;22;20026;-48
2021/08/03 10:24:13;;;;;;;2.85;1.38;;;;;;;;;;6301346;22;20424;-49
2021/08/03 10:26:38;;;;;;;;;;;;;;;;;;6302352;22;20003;-50
2021/08/03 10:29:39;;;;;;;3.97;1.23;;;;;;;;;;6301791;22;20350;-45
2021/08/03 10:32:04;;;;;;;3.88;1.65;;;;;;;;;;6206416;23;20303;-45
2021/08/03 10:34:55;;;;;;;1.85;1.25;;;;;;;;;;6281163;22;20018;-48
2021/08/03 10:37:22;;;;;;;3.25;1.30;;;;;;;;;;6296418;22;20038;-45
2021/08/03 10:39:51;;;;;;;3.17;1.50;;;;;;;;;;6301607;22;19996;-50
2021/08/03 10:42:16;;;;;;;7.90;1.40;;;;;;;;;;6301240;22;20630;-55
2021/08/03 10:44:42;;;;;;;4.25;1.67;;;;;;;;;;6301707;22;20019;-52
2021/08/03 10:47:42;;;;;;;5.20;1.17;;;;;;;;;;6301009;22;20428;-52
2021/08/03 10:50:09;;;;;;;1.65;1.40;;;;;;;;;;6206267;23;20072;-52
2021/08/03 10:52:48;;;;;;;1.98;1.08;;;;;;;;;;6281791;22;20052;-56
2021/08/03 10:55:32;;;;;;;7.20;1.58;;;;;;;;;;6301394;22;20069;-51
2021/08/03 10:58:09;;;;;;;8.27;1.70;;;;;;;;;;6301596;22;20003;-51
2021/08/03 11:00:47;;;;;;;2.15;1.48;;;;;;;;;;6301193;22;20034;-50
2021/08/03 11:03:31;;;;;;;2.92;1.65;;;;;;;;;;6301760;22;19995;-45
2021/08/03 11:06:05;;;;;;;5.50;2.20;;;;;;;;;;6301440;22;20027;-54
2021/08/03 11:08:31;;;;;;;3.28;1.38;;;;;;;;;;6301690;22;20034;-52
2021/08/03 11:11:01;;;;;;;2.85;1.38;;;;;;;;;;6301777;22;19999;-54
2021/08/03 11:13:41;;;;;;;1.60;1.03;;;;;;;;;;6301812;22;20179;-56
2021/08/03 11:16:11;;;;;;;3.97;2.17;;;;;;;;;;6301542;22;20002;-49
2021/08/03 11:18:43;;;;;;;3.90;1.42;;;;;;;;;;6302158;22;19999;-53
2021/08/03 11:21:09;;;;;;;7.97;1.73;;;;;;;;;;6301596;22;20018;-51
2021/08/03 11:23:53;;;;;;;3.78;1.73;;;;;;;;;;6301735;22;20007;-49
2021/08/03 11:26:19;;;;;;;9.65;1.65;;;;;;;;;;6301738;22;20456;-53
2021/08/03 11:28:58;;;;;;;2.70;1.40;;;;;;;;;;6302005;22;20072;-52
2021/08/03 11:31:37;;;;;;;2.63;0.93;;;;;;;;;;6301319;22;19995;-55
2021/08/03 11:34:03;;;;;;;6.65;1.45;;;;;;;;;;6301307;22;19999;-50
2021/08/03 11:36:28;;;;;;;2.20;0.93;;;;;;;;;;6301886;22;20165;-55
2021/08/03 11:38:53;;;;;;;11.35;1.63;;;;;;;;;;6301260;22;20336;-51
2021/08/03 11:41:18;;;;;;;1.38;0.90;;;;;;;;;;6300684;22;20439;-53
2021/08/03 11:43:44;;;;;;;2.22;1.17;;;;;;;;;;6301341;22;20007;-53
2021/08/03 11:46:09;;;;;;;2.75;1.20;;;;;;;;;;6301427;22;20000;-51
2021/08/03 11:48:34;;;;;;;1.52;1.05;;;;;;;;;;6300989;22;20054;-50
2021/08/03 11:51:01;;;;;;;1.90;0.90;;;;;;;;;;6301275;22;19998;-52
2021/08/03 11:53:28;;;;;;;11.77;1.63;;;;;;;;;;6301115;22;20002;-52
2021/08/03 11:55:57;;;;;;;3.35;1.50;;;;;;;;;;6301247;22;20467;-53
2021/08/03 11:58:23;;;;;;;2.97;1.25;;;;;;;;;;6301607;22;20029;-55
2021/08/03 12:00:52;;;;;;;3.92;1.17;;;;;;;;;;6303348;22;20401;-53
2021/08/03 12:03:27;;;;;;;2.90;1.58;;;;;;;;;;6303075;22;20023;-51
2021/08/03 12:05:52;;;;;;;3.67;2.30;;;;;;;;;;6303280;22;20065;-51
2021/08/03 12:08:18;;;;;;;6.30;1.38;;;;;;;;;;6302953;22;20003;-59
2021/08/03 12:10:46;;;;;;;2.15;1.17;;;;;;;;;;6303322;22;20062;-51
2021/08/03 12:13:24;;;;;;;3.50;1.70;;;;;;;;;;6303157;22;20002;-51
2021/08/03 12:15:51;;;;;;;1.35;0.70;;;;;;;;;;6303574;22;20120;-51
2021/08/03 12:18:16;;;;;;;3.33;1.15;;;;;;;;;;6303280;22;20023;-53
2021/08/03 12:20:42;;;;;;;8.57;1.20;;;;;;;;;;6302778;22;20486;-52
2021/08/03 12:23:15;;;;;;;2.50;1.48;;;;;;;;;;6302911;22;20045;-50
2021/08/03 12:25:45;;;;;;;3.58;1.38;;;;;;;;;;6303061;22;20017;-50
2021/08/03 12:28:10;;;;;;;5.72;1.13;;;;;;;;;;6302940;22;20006;-50
2021/08/03 12:30:37;;;;;;;5.25;2.13;;;;;;;;;;6303034;22;20413;-54
2021/08/03 12:33:03;;;;;;;2.47;1.83;;;;;;;;;;6302506;22;20306;-51
2021/08/03 12:35:28;;;;;;;6.80;1.23;;;;;;;;;;6302971;22;20003;-46
2021/08/03 12:38:09;;;;;;;10.63;1.98;;;;;;;;;;6302582;22;20074;-51
2021/08/03 12:40:34;;;;;;;2.78;1.45;;;;;;;;;;6302860;22;20744;-49
2021/08/03 12:43:00;;;;;;;10.75;1.65;;;;;;;;;;6302691;22;20014;-48
2021/08/03 12:45:26;;;;;;;1.90;1.10;;;;;;;;;;6302807;22;20006;-51
2021/08/03 12:47:53;;;;;;;6.65;1.45;;;;;;;;;;6303062;22;20070;-50
2021/08/03 12:50:18;;;;;;;12.38;3.05;;;;;;;;;;6302306;22;20482;-50
2021/08/03 12:52:48;;;;;;;2.42;1.25;;;;;;;;;;6302423;22;19996;-49
2021/08/03 12:55:14;;;;;;;3.30;1.50;;;;;;;;;;6302863;22;19999;-49
2021/08/03 12:57:44;;;;;;;2.58;1.70;;;;;;;;;;6302736;22;20003;-49
2021/08/03 13:00:27;;;;;;;1.85;1.55;;;;;;;;;;6302137;22;20003;-50
2021/08/03 13:02:52;;;;;;;3.05;1.58;;;;;;;;;;6302648;22;19999;-49
2021/08/03 13:05:18;;;;;;;11.35;9.02;;;;;;;;;;6302282;22;20010;-50
2021/08/03 13:07:43;;;;;;;10.10;9.20;;;;;;;;;;6302194;22;20440;-50
2021/08/03 13:10:08;;;;;;;10.02;6.72;;;;;;;;;;6302081;22;20022;-50
2021/08/03 13:12:34;;;;;;;8.73;4.85;;;;;;;;;;6302805;22;19999;-51
2021/08/03 13:14:59;;;;;;;6.35;3.03;;;;;;;;;;6302350;22;20049;-45
2021/08/03 13:17:24;;;;;;;4.53;2.42;;;;;;;;;;6302144;22;20003;-58
2021/08/03 13:19:50;;;;;;;3.53;2.42;;;;;;;;;;6302166;22;20026;-48
2021/08/03 13:22:15;;;;;;;2.67;1.50;;;;;;;;;;6302531;22;20003;-49
2021/08/03 13:24:40;;;;;;;2.50;1.77;;;;;;;;;;6302781;22;20003;-49
2021/08/03 13:27:05;;;;;;;13.53;12.37;;;;;;;;;;6302470;22;19995;-48
2021/08/03 13:29:31;;;;;;;8.85;7.57;;;;;;;;;;6302287;22;20081;-50
2021/08/03 13:31:56;;;;;;;17.67;6.88;;;;;;;;;;6301823;22;20000;-51
2021/08/03 13:34:21;;;;;;;6.97;4.88;;;;;;;;;;6302026;22;19999;-47
2021/08/03 13:36:47;;;;;;;4.10;2.35;;;;;;;;;;6302582;22;19991;-50
2021/08/03 13:39:12;;;;;;;5.82;2.70;;;;;;;;;;6302301;22;20104;-50
2021/08/03 13:41:38;;;;;;;4.63;1.52;;;;;;;;;;6302695;22;20011;-49
2021/08/03 13:44:04;;;;;;;5.45;2.72;;;;;;;;;;6302574;22;19999;-50
2021/08/03 13:46:29;;;;;;;10.20;1.70;;;;;;;;;;6302335;22;20002;-54
2021/08/03 13:48:55;;;;;;;2.53;2.08;;;;;;;;;;6302110;22;20015;-51
2021/08/03 13:51:20;;;;;;;3.13;1.52;;;;;;;;;;6301764;22;19999;-52
2021/08/03 13:53:45;;;;;;;6.82;2.55;;;;;;;;;;6302077;22;19999;-48
2021/08/03 13:56:11;;;;;;;2.58;1.70;;;;;;;;;;6302616;22;20062;-53
2021/08/03 13:58:36;;;;;;;3.65;1.50;;;;;;;;;;6302328;22;20458;-52
2021/08/03 14:01:02;;;;;;;2.22;1.60;;;;;;;;;;6301787;22;20352;-53
2021/08/03 14:03:27;;;;;;;1.80;1.20;;;;;;;;;;6302030;22;20003;-51
2021/08/03 14:05:52;;;;;;;2.58;1.52;;;;;;;;;;6302117;22;20010;-50
2021/08/03 14:08:18;;;;;;;2.28;1.08;;;;;;;;;;6301706;22;20107;-53
2021/08/03 14:10:43;;;;;;;5.00;1.67;;;;;;;;;;6302032;22;19999;-54
2021/08/03 14:13:08;;;;;;;4.25;1.45;;;;;;;;;;6301646;22;19994;-47
2021/08/03 14:15:33;;;;;;;2.03;1.15;;;;;;;;;;6301555;22;20003;-51
2021/08/03 14:17:59;;;;;;;6.40;2.03;;;;;;;;;;6301795;22;20006;-47
2021/08/03 14:20:24;;;;;;;1.77;0.98;;;;;;;;;;6301460;22;20027;-52
2021/08/03 14:22:49;;;;;;;3.15;1.40;;;;;;;;;;6301155;22;20027;-64
2021/08/03 14:25:15;;;;;;;1.92;1.23;;;;;;;;;;6301965;22;20053;-49
2021/08/03 14:27:40;;;;;;;6.45;1.95;;;;;;;;;;6301818;22;20001;-49
2021/08/03 14:30:06;;;;;;;1.70;1.40;;;;;;;;;;6302226;22;20003;-51
2021/08/03 14:32:33;;;;;;;2.80;1.10;;;;;;;;;;6301424;22;19999;-53
2021/08/03 14:34:58;;;;;;;1.90;1.00;;;;;;;;;;6302141;22;20003;-50
2021/08/03 14:37:24;;;;;;;5.07;1.58;;;;;;;;;;6301612;22;20510;-52
2021/08/03 14:39:49;;;;;;;1.70;1.02;;;;;;;;;;6301824;22;20010;-48
2021/08/03 14:42:14;;;;;;;2.28;1.55;;;;;;;;;;6301350;22;20010;-53